Time;durP1;ratioP1;P1;durP2;ratioP2;P2;SDS_P1;SDS_P2;PMS_P1;PMS_P2;Temp;Humidity;BMP_temperature;BMP_pressure;BME280_temperature;BME280_humidity;BME280_pressure;Samples;Min_cycle;Max_cycle;Signal;HPM_P1;HPM_P2
2021/08/16 00:00:03;;;;;;;17.50;8.63;;;;;;;20.48;100.00;95540.41;1036260;28;20018;-71
2021/08/16 00:00:34;;;;;;;14.55;8.68;;;;;;;20.42;100.00;95544.47;1040085;28;20021;-71
2021/08/16 00:01:04;;;;;;;19.27;9.27;;;;;;;20.37;100.00;95539.28;1040616;28;20541;-71
2021/08/16 00:01:35;;;;;;;15.27;8.57;;;;;;;20.36;100.00;95536.88;1044243;28;20074;-71
2021/08/16 00:02:06;;;;;;;17.47;8.63;;;;;;;20.39;100.00;95539.72;1044663;28;20074;-71
2021/08/16 00:02:36;;;;;;;20.40;9.17;;;;;;;20.38;100.00;95534.63;1044617;28;20067;-71
2021/08/16 00:03:06;;;;;;;17.60;8.87;;;;;;;20.37;100.00;95536.56;1044617;28;20021;-71
2021/08/16 00:03:37;;;;;;;15.50;9.13;;;;;;;20.38;100.00;95535.44;1044461;28;20021;-71
2021/08/16 00:04:07;;;;;;;13.03;8.43;;;;;;;20.42;100.00;95538.22;1044565;28;20028;-71
2021/08/16 00:04:38;;;;;;;20.60;9.37;;;;;;;20.41;100.00;95548.28;1044283;28;20013;-71
2021/08/16 00:05:09;;;;;;;16.60;8.87;;;;;;;20.37;100.00;95542.00;1044366;28;20021;-71
2021/08/16 00:05:39;;;;;;;18.38;8.75;;;;;;;20.38;100.00;95545.50;1044206;28;20071;-72
2021/08/16 00:06:10;;;;;;;16.90;8.60;;;;;;;20.41;100.00;95542.06;1040374;28;20138;-71
2021/08/16 00:06:40;;;;;;;18.73;8.70;;;;;;;20.41;100.00;95542.88;1044281;28;20528;-71
2021/08/16 00:07:10;;;;;;;14.73;8.80;;;;;;;20.40;100.00;95545.94;1045131;28;20024;-71
2021/08/16 00:07:41;;;;;;;14.20;9.33;;;;;;;20.44;100.00;95544.13;1045414;28;20021;-71
2021/08/16 00:08:12;;;;;;;16.30;9.10;;;;;;;20.45;100.00;95542.97;1044402;28;20021;-71
2021/08/16 00:08:42;;;;;;;18.90;8.93;;;;;;;20.47;100.00;95543.44;1044638;28;20024;-72
2021/08/16 00:09:13;;;;;;;17.43;8.60;;;;;;;20.48;100.00;95536.91;1044633;28;20393;-71
2021/08/16 00:09:43;;;;;;;23.57;8.83;;;;;;;20.47;100.00;95543.44;1044555;28;20481;-71
2021/08/16 00:10:14;;;;;;;16.03;8.77;;;;;;;20.50;100.00;95545.47;1044603;28;20024;-71
2021/08/16 00:10:45;;;;;;;14.48;8.65;;;;;;;20.51;100.00;95538.91;1040133;28;20017;-71
2021/08/16 00:11:15;;;;;;;13.53;8.50;;;;;;;20.51;100.00;95536.97;1040183;28;20022;-71
2021/08/16 00:11:46;;;;;;;18.53;9.33;;;;;;;20.54;100.00;95529.31;1040075;28;20075;-71
2021/08/16 00:12:16;;;;;;;15.37;8.27;;;;;;;20.53;100.00;95542.09;1040367;28;20071;-71
2021/08/16 00:12:46;;;;;;;15.73;8.57;;;;;;;20.54;100.00;95537.44;1044250;28;20122;-71
2021/08/16 00:13:17;;;;;;;20.93;9.33;;;;;;;20.55;100.00;95537.09;1044379;28;20086;-71
2021/08/16 00:13:48;;;;;;;14.63;8.30;;;;;;;20.56;100.00;95535.97;1044191;28;20559;-71
2021/08/16 00:14:18;;;;;;;16.90;8.73;;;;;;;20.59;100.00;95542.63;1044261;28;20141;-71
2021/08/16 00:14:48;;;;;;;20.77;9.43;;;;;;;20.59;100.00;95538.00;1044189;28;20037;-71
2021/08/16 00:15:19;;;;;;;16.00;9.20;;;;;;;20.59;100.00;95540.72;1036132;28;20025;-71
2021/08/16 00:15:49;;;;;;;15.30;9.33;;;;;;;20.59;100.00;95538.00;1036005;28;20402;-71
2021/08/16 00:16:20;;;;;;;17.43;9.07;;;;;;;20.57;100.00;95539.44;1036022;28;20025;-72
2021/08/16 00:16:50;;;;;;;18.07;9.10;;;;;;;20.59;100.00;95535.28;1035999;28;20062;-71
2021/08/16 00:17:21;;;;;;;19.90;9.03;;;;;;;20.60;100.00;95536.06;1044324;28;20044;-71
2021/08/16 00:17:51;;;;;;;18.07;8.37;;;;;;;20.62;100.00;95531.06;1044584;28;20060;-71
2021/08/16 00:18:21;;;;;;;18.40;9.23;;;;;;;20.62;100.00;95534.56;1044561;28;20409;-71
2021/08/16 00:18:52;;;;;;;17.60;9.33;;;;;;;20.63;100.00;95533.47;1044517;28;20504;-71
2021/08/16 00:19:22;;;;;;;18.93;8.57;;;;;;;20.64;100.00;95528.81;1044325;28;20052;-71
2021/08/16 00:19:53;;;;;;;17.77;9.37;;;;;;;20.66;100.00;95531.97;1040201;28;20044;-71
2021/08/16 00:20:23;;;;;;;16.30;8.43;;;;;;;20.66;100.00;95531.97;1040155;28;20041;-71
2021/08/16 00:20:53;;;;;;;18.83;9.47;;;;;;;20.68;100.00;95529.72;1040165;28;20018;-71
2021/08/16 00:21:24;;;;;;;13.20;9.20;;;;;;;20.68;100.00;95529.72;1044387;28;20025;-72
2021/08/16 00:21:54;;;;;;;17.53;9.17;;;;;;;20.68;100.00;95529.72;1046671;28;20021;-72
2021/08/16 00:22:25;;;;;;;21.50;9.07;;;;;;;20.70;100.00;95536.38;1046531;28;20025;-72
2021/08/16 00:22:55;;;;;;;22.40;9.77;;;;;;;20.70;100.00;95538.28;1046512;28;20021;-72
2021/08/16 00:23:26;;;;;;;18.30;9.50;;;;;;;20.71;100.00;95539.88;1047255;28;20021;-72
2021/08/16 00:23:56;;;;;;;20.00;9.40;;;;;;;20.70;100.00;95530.16;1046717;28;20021;-72
2021/08/16 00:24:26;;;;;;;14.93;8.97;;;;;;;20.71;100.00;95532.50;1046878;28;20171;-72
2021/08/16 00:24:57;;;;;;;15.50;9.40;;;;;;;20.73;100.00;95526.75;1046501;28;20017;-72
2021/08/16 00:25:27;;;;;;;19.17;9.80;;;;;;;20.74;100.00;95526.41;1046512;28;20083;-72
2021/08/16 00:25:58;;;;;;;17.03;9.33;;;;;;;20.75;100.00;95530.69;1042578;28;20021;-72
2021/08/16 00:26:28;;;;;;;20.00;9.77;;;;;;;20.75;100.00;95527.97;1042232;28;20022;-71
2021/08/16 00:26:59;;;;;;;17.23;8.83;;;;;;;20.77;100.00;95527.63;1046215;28;20211;-72
2021/08/16 00:27:29;;;;;;;16.73;8.50;;;;;;;20.77;100.00;95528.41;1046630;28;20032;-72
2021/08/16 00:28:00;;;;;;;15.63;9.43;;;;;;;20.77;100.00;95531.13;1046717;28;20036;-72
2021/08/16 00:28:30;;;;;;;17.03;10.33;;;;;;;20.80;100.00;95531.56;1046937;28;20029;-72
2021/08/16 00:29:00;;;;;;;15.57;9.37;;;;;;;20.79;100.00;95528.06;1046780;28;20029;-71
2021/08/16 00:29:31;;;;;;;17.20;9.97;;;;;;;20.79;100.00;95524.56;1046709;28;20025;-71
2021/08/16 00:30:05;;;;;;;16.53;9.67;;;;;;;20.76;100.00;95521.41;1046828;28;20103;-71
2021/08/16 00:30:35;;;;;;;15.70;9.10;;;;;;;20.75;100.00;95521.75;1046725;28;20056;-71
2021/08/16 00:31:05;;;;;;;28.00;10.97;;;;;;;20.76;100.00;95515.19;1046483;28;20028;-71
2021/08/16 00:31:36;;;;;;;21.67;9.60;;;;;;;20.76;100.00;95521.41;1046023;28;20484;-71
2021/08/16 00:32:06;;;;;;;21.70;10.10;;;;;;;20.77;100.00;95519.47;1046922;28;20036;-71
2021/08/16 00:32:37;;;;;;;26.80;10.50;;;;;;;20.78;100.00;95521.06;1047164;28;20036;-72
2021/08/16 00:33:07;;;;;;;19.20;10.40;;;;;;;20.81;100.00;95525.78;1045997;28;20021;-72
2021/08/16 00:33:38;;;;;;;18.00;9.50;;;;;;;20.82;100.00;95521.94;1044774;28;20024;-71
2021/08/16 00:34:09;;;;;;;21.60;10.17;;;;;;;20.84;100.00;95527.03;1044468;28;20029;-71
2021/08/16 00:34:39;;;;;;;22.63;9.93;;;;;;;20.85;100.00;95528.63;1044246;28;20516;-71
2021/08/16 00:35:10;;;;;;;17.10;9.57;;;;;;;20.84;100.00;95527.03;1044364;28;20044;-71
2021/08/16 00:35:40;;;;;;;17.13;9.43;;;;;;;20.83;100.00;95531.69;1044596;28;20028;-82
2021/08/16 00:36:11;;;;;;;17.70;9.80;;;;;;;20.83;100.00;95520.81;1040042;28;20025;-73
2021/08/16 00:36:41;;;;;;;19.87;10.30;;;;;;;20.84;100.00;95527.03;1040074;28;20025;-72
2021/08/16 00:37:11;;;;;;;18.10;9.80;;;;;;;20.87;100.00;95531.75;1040005;28;20013;-72
2021/08/16 00:37:42;;;;;;;15.70;9.37;;;;;;;20.85;100.00;95531.31;1040096;28;20017;-72
2021/08/16 00:38:12;;;;;;;18.57;9.57;;;;;;;20.85;100.00;95528.63;1044451;28;20017;-72
2021/08/16 00:38:43;;;;;;;19.30;9.60;;;;;;;20.86;100.00;95536.41;1044536;28;20017;-72
2021/08/16 00:39:13;;;;;;;18.80;9.50;;;;;;;20.82;100.00;95527.38;1044416;28;20027;-72
2021/08/16 00:39:43;;;;;;;19.63;9.87;;;;;;;20.81;100.00;95533.94;1046032;28;20028;-73
2021/08/16 00:40:14;;;;;;;16.57;9.57;;;;;;;20.79;100.00;95524.56;1045662;28;20048;-72
2021/08/16 00:40:45;;;;;;;15.18;9.05;;;;;;;20.84;100.00;95530.53;1044511;28;20021;-72
2021/08/16 00:41:16;;;;;;;20.27;10.00;;;;;;;20.82;100.00;95523.88;1044026;28;20397;-72
2021/08/16 00:41:47;;;;;;;19.52;9.75;;;;;;;20.81;100.00;95522.28;1044150;28;20020;-72
2021/08/16 00:42:18;;;;;;;21.10;9.32;;;;;;;20.77;100.00;95525.69;1044165;28;20021;-72
2021/08/16 00:42:48;;;;;;;18.70;9.57;;;;;;;20.81;100.00;95525.78;1040379;28;20040;-73
2021/08/16 00:43:19;;;;;;;17.10;9.23;;;;;;;20.81;100.00;95525.00;1039898;28;20511;-72
2021/08/16 00:43:50;;;;;;;18.83;8.97;;;;;;;20.84;100.00;95529.75;1040042;28;20025;-71
2021/08/16 00:44:20;;;;;;;24.30;9.65;;;;;;;20.79;100.00;95528.06;1036152;28;20022;-71
2021/08/16 00:44:51;;;;;;;16.33;9.73;;;;;;;20.79;100.00;95524.56;1035995;28;20034;-72
2021/08/16 00:45:21;;;;;;;21.23;9.63;;;;;;;20.76;100.00;95524.09;1028016;28;20428;-72
2021/08/16 00:45:51;;;;;;;19.53;10.30;;;;;;;20.79;100.00;95524.56;1031862;28;20423;-72
2021/08/16 00:46:22;;;;;;;21.73;10.43;;;;;;;20.74;100.00;95526.41;1028014;28;20015;-71
2021/08/16 00:46:52;;;;;;;20.17;9.30;;;;;;;20.76;100.00;95520.59;1031994;28;20146;-71
2021/08/16 00:47:23;;;;;;;24.20;9.07;;;;;;;20.77;100.00;95519.47;1031853;28;20080;-71
2021/08/16 00:47:53;;;;;;;19.53;9.67;;;;;;;20.75;100.00;95527.97;1031978;28;20030;-71
2021/08/16 00:48:24;;;;;;;16.53;9.63;;;;;;;20.79;100.00;95525.34;1035827;28;20010;-71
2021/08/16 00:48:54;;;;;;;16.63;9.60;;;;;;;20.79;100.00;95521.84;1032038;28;20010;-71
2021/08/16 00:49:24;;;;;;;18.47;9.20;;;;;;;20.77;100.00;95522.19;1031926;28;20026;-72
2021/08/16 00:49:55;;;;;;;22.53;9.30;;;;;;;20.76;100.00;95526.03;1036058;28;20049;-72
2021/08/16 00:50:25;;;;;;;20.27;10.13;;;;;;;20.73;100.00;95515.88;1048028;28;20071;-72
2021/08/16 00:50:56;;;;;;;18.43;9.57;;;;;;;20.70;100.00;95525.50;1048349;28;20070;-71
2021/08/16 00:51:27;;;;;;;19.97;10.00;;;;;;;20.71;100.00;95520.84;1048230;28;20475;-71
2021/08/16 00:51:58;;;;;;;20.35;10.07;;;;;;;20.72;100.00;95520.50;1043897;28;20027;-75
2021/08/16 00:52:28;;;;;;;21.20;9.73;;;;;;;20.72;100.00;95517.78;1040046;28;20103;-71
2021/08/16 00:52:58;;;;;;;20.00;9.97;;;;;;;20.73;100.00;95519.38;1040280;28;20382;-72
2021/08/16 00:53:29;;;;;;;21.47;9.97;;;;;;;20.73;100.00;95522.09;1039748;28;20463;-72
2021/08/16 00:54:00;;;;;;;21.63;10.60;;;;;;;20.73;100.00;95516.69;1031735;28;20031;-72
2021/08/16 00:54:30;;;;;;;18.10;9.63;;;;;;;20.75;100.00;95517.09;1027987;28;20149;-72
2021/08/16 00:55:01;;;;;;;21.77;9.53;;;;;;;20.77;100.00;95520.25;1028113;28;20023;-72
2021/08/16 00:55:32;;;;;;;18.20;9.13;;;;;;;20.80;100.00;95518.78;1032046;28;20130;-72
2021/08/16 00:56:03;;;;;;;18.77;9.23;;;;;;;20.79;100.00;95513.72;1031977;28;20018;-72
2021/08/16 00:56:36;;;;;;;17.83;9.17;;;;;;;20.81;100.00;95508.72;1031764;28;20475;-72
2021/08/16 00:57:07;;;;;;;13.88;9.23;;;;;;;20.82;100.00;95524.66;1033543;28;20023;-72
2021/08/16 00:57:38;;;;;;;16.90;9.47;;;;;;;20.81;100.00;95508.72;1024637;28;20015;-72
2021/08/16 00:58:08;;;;;;;19.98;10.57;;;;;;;20.80;100.00;95510.63;1027839;28;20022;-72
2021/08/16 00:58:39;;;;;;;18.53;10.13;;;;;;;20.83;100.00;95520.00;1031037;28;20015;-72
2021/08/16 00:59:11;;;;;;;18.30;9.83;;;;;;;20.83;100.00;95518.09;1032428;28;20022;-72
2021/08/16 00:59:41;;;;;;;17.02;9.65;;;;;;;20.87;100.00;95510.03;1040104;28;20021;-72
2021/08/16 01:00:12;;;;;;;15.50;8.97;;;;;;;20.87;100.00;95510.81;1040005;28;20025;-72
2021/08/16 01:00:43;;;;;;;22.40;10.00;;;;;;;20.86;100.00;95505.75;1039864;28;20406;-72
2021/08/16 01:01:13;;;;;;;13.20;8.75;;;;;;;20.87;100.00;95510.81;1040137;28;20013;-72
2021/08/16 01:01:44;;;;;;;18.90;9.03;;;;;;;20.87;100.00;95505.38;1043778;28;20029;-72
2021/08/16 01:02:14;;;;;;;16.50;9.10;;;;;;;20.86;100.00;95517.41;1044273;28;20104;-72
2021/08/16 01:02:44;;;;;;;17.10;9.60;;;;;;;20.85;100.00;95509.59;1044414;28;20444;-72
2021/08/16 01:03:15;;;;;;;19.87;9.83;;;;;;;20.87;100.00;95505.38;1044447;28;20047;-72
2021/08/16 01:03:45;;;;;;;16.40;9.33;;;;;;;20.87;100.00;95512.75;1044066;28;20079;-72
2021/08/16 01:04:16;;;;;;;15.33;9.13;;;;;;;20.88;100.00;95512.41;1040041;28;20017;-72
2021/08/16 01:04:46;;;;;;;13.93;8.50;;;;;;;20.88;100.00;95506.16;1039911;28;20033;-72
2021/08/16 01:05:16;;;;;;;21.30;9.83;;;;;;;20.87;100.00;95507.31;1040073;28;20033;-72
2021/08/16 01:05:47;;;;;;;19.60;10.07;;;;;;;20.87;100.00;95510.03;1044095;28;20025;-72
2021/08/16 01:06:18;;;;;;;19.60;9.47;;;;;;;20.89;100.00;95507.78;1044425;28;20103;-72
2021/08/16 01:06:49;;;;;;;19.47;10.20;;;;;;;20.88;100.00;95517.84;1044379;28;20025;-72
2021/08/16 01:07:20;;;;;;;20.77;9.70;;;;;;;20.86;100.00;95511.97;1044128;28;20036;-72
2021/08/16 01:07:50;;;;;;;21.80;10.37;;;;;;;20.87;100.00;95515.47;1044040;28;20025;-72
2021/08/16 01:08:21;;;;;;;14.80;9.30;;;;;;;20.87;100.00;95518.97;1044007;28;20024;-72
2021/08/16 01:08:51;;;;;;;18.03;8.83;;;;;;;20.89;100.00;95513.22;1044054;28;20013;-72
2021/08/16 01:09:22;;;;;;;17.67;9.27;;;;;;;20.89;100.00;95515.94;1044139;28;20112;-72
2021/08/16 01:09:52;;;;;;;15.50;8.83;;;;;;;20.89;100.00;95513.22;1039901;28;20480;-72
2021/08/16 01:10:23;;;;;;;19.90;9.23;;;;;;;20.88;100.00;95512.41;1035836;28;20493;-72
2021/08/16 01:10:53;;;;;;;23.20;9.10;;;;;;;20.89;100.00;95516.72;1031827;28;20056;-72
2021/08/16 01:11:23;;;;;;;17.27;9.77;;;;;;;20.89;100.00;95518.66;1031818;28;20089;-72
2021/08/16 01:11:54;;;;;;;17.37;10.33;;;;;;;20.90;100.00;95517.50;1040026;28;20441;-73
2021/08/16 01:12:26;;;;;;;19.70;9.23;;;;;;;20.91;100.00;95521.78;1044250;28;20379;-72
2021/08/16 01:12:59;;;;;;;17.05;9.23;;;;;;;20.89;100.00;95511.28;1040185;28;20548;-72
2021/08/16 01:13:29;;;;;;;20.23;9.60;;;;;;;20.90;100.00;95522.94;1043429;28;20021;-72
2021/08/16 01:14:00;;;;;;;18.47;9.87;;;;;;;20.90;100.00;95517.50;1039987;28;20378;-72
2021/08/16 01:14:30;;;;;;;17.87;9.57;;;;;;;20.87;100.00;95518.97;1040539;28;20038;-72
2021/08/16 01:15:02;;;;;;;17.30;10.23;;;;;;;20.87;100.00;95518.97;1040001;28;20025;-72
2021/08/16 01:15:33;;;;;;;16.63;9.35;;;;;;;20.87;100.00;95510.03;1035911;28;20033;-72
2021/08/16 01:16:04;;;;;;;14.80;8.90;;;;;;;20.86;100.00;95511.97;1032084;28;20022;-72
2021/08/16 01:16:35;;;;;;;17.52;9.70;;;;;;;20.85;100.00;95504.16;1032177;28;20077;-72
2021/08/16 01:17:07;;;;;;;20.73;10.00;;;;;;;20.86;100.00;95505.75;1038285;28;20029;-73
2021/08/16 01:17:38;;;;;;;18.38;10.27;;;;;;;20.84;100.00;95503.38;1042672;28;20161;-73
2021/08/16 01:18:08;;;;;;;20.42;10.10;;;;;;;20.85;100.00;95504.97;1046008;28;20017;-72
2021/08/16 01:18:39;;;;;;;17.63;9.40;;;;;;;20.86;100.00;95505.75;1042074;28;20017;-72
2021/08/16 01:19:10;;;;;;;18.40;10.73;;;;;;;20.83;100.00;95504.53;1040045;28;20018;-72
2021/08/16 01:19:40;;;;;;;21.07;10.40;;;;;;;20.86;100.00;95508.47;1041577;28;20018;-73
2021/08/16 01:20:12;;;;;;;20.97;9.70;;;;;;;20.82;100.00;95502.91;1042359;28;20025;-72
2021/08/16 01:20:42;;;;;;;20.67;9.75;;;;;;;20.79;100.00;95500.91;1044525;28;20036;-72
2021/08/16 01:21:14;;;;;;;23.53;11.03;;;;;;;20.78;100.00;95504.78;1044416;28;20029;-72
2021/08/16 01:21:45;;;;;;;23.17;10.38;;;;;;;20.80;100.00;95501.72;1044372;28;20020;-72
2021/08/16 01:22:16;;;;;;;19.60;9.67;;;;;;;20.77;100.00;95503.97;1043949;28;20029;-72
2021/08/16 01:22:46;;;;;;;15.82;9.73;;;;;;;20.74;100.00;95501.16;1039991;28;20079;-72
2021/08/16 01:23:17;;;;;;;18.13;9.73;;;;;;;20.73;100.00;95499.59;1039928;28;20521;-72
2021/08/16 01:23:47;;;;;;;17.53;9.40;;;;;;;20.73;100.00;95502.31;1040056;28;20067;-72
2021/08/16 01:24:18;;;;;;;16.77;9.73;;;;;;;20.72;100.00;95498.78;1044060;28;20056;-72
2021/08/16 01:24:48;;;;;;;22.57;9.93;;;;;;;20.73;100.00;95502.31;1044409;28;20053;-72
2021/08/16 01:25:19;;;;;;;38.80;10.13;;;;;;;20.70;100.00;95503.78;1044364;28;20462;-72
2021/08/16 01:25:49;;;;;;;15.70;9.57;;;;;;;20.68;100.00;95503.34;1044889;28;20446;-72
2021/08/16 01:26:19;;;;;;;17.70;10.10;;;;;;;20.68;100.00;95500.63;1044629;28;20083;-72
2021/08/16 01:26:50;;;;;;;18.50;10.17;;;;;;;20.68;100.00;95503.34;1044629;28;20034;-72
2021/08/16 01:27:20;;;;;;;18.70;8.60;;;;;;;20.70;100.00;95503.78;1044438;28;20017;-72
2021/08/16 01:27:51;;;;;;;17.90;9.30;;;;;;;20.70;100.00;95501.06;1044534;28;20028;-72
2021/08/16 01:28:21;;;;;;;16.87;9.90;;;;;;;20.69;100.00;95496.78;1044468;28;20028;-72
2021/08/16 01:28:52;;;;;;;20.67;10.00;;;;;;;20.70;100.00;95501.06;1044652;28;20025;-72
2021/08/16 01:29:23;;;;;;;19.53;10.67;;;;;;;20.71;100.00;95499.13;1044886;28;20023;-72
2021/08/16 01:29:54;;;;;;;17.77;10.00;;;;;;;20.70;100.00;95505.72;1044554;28;20458;-72
2021/08/16 01:30:25;;;;;;;17.27;9.43;;;;;;;20.68;100.00;95502.56;1044089;28;20311;-72
2021/08/16 01:30:59;;;;;;;20.80;10.33;;;;;;;20.68;100.00;95500.63;1044458;28;20071;-72
2021/08/16 01:31:30;;;;;;;22.13;9.95;;;;;;;20.65;100.00;95501.31;1044344;28;20017;-72
2021/08/16 01:32:00;;;;;;;22.63;10.30;;;;;;;20.64;100.00;95502.47;1044949;28;20017;-72
2021/08/16 01:32:31;;;;;;;17.17;9.47;;;;;;;20.64;100.00;95499.75;1044476;28;20017;-72
2021/08/16 01:33:01;;;;;;;19.87;11.00;;;;;;;20.63;100.00;95500.09;1044070;28;20021;-72
2021/08/16 01:33:32;;;;;;;17.00;11.00;;;;;;;20.62;100.00;95501.22;1044054;28;20072;-72
2021/08/16 01:34:02;;;;;;;18.63;10.90;;;;;;;20.65;100.00;95503.25;1044091;28;20025;-72
2021/08/16 01:34:33;;;;;;;16.43;10.13;;;;;;;20.65;100.00;95498.59;1044025;28;20079;-72
2021/08/16 01:35:04;;;;;;;19.40;10.10;;;;;;;20.63;100.00;95500.09;1044868;28;20330;-72
2021/08/16 01:35:34;;;;;;;16.53;10.27;;;;;;;20.60;100.00;95501.56;1044831;28;20033;-73
2021/08/16 01:36:05;;;;;;;16.67;10.17;;;;;;;20.60;100.00;95503.50;1044848;28;20264;-72
2021/08/16 01:36:35;;;;;;;22.17;10.70;;;;;;;20.61;100.00;95507.78;1044816;28;20029;-72
2021/08/16 01:37:06;;;;;;;17.20;10.30;;;;;;;20.63;100.00;95502.81;1045172;28;20037;-72
2021/08/16 01:37:36;;;;;;;18.10;10.00;;;;;;;20.62;100.00;95510.13;1045127;28;20021;-72
2021/08/16 01:38:07;;;;;;;18.87;10.50;;;;;;;20.62;100.00;95503.91;1045224;28;20025;-72
2021/08/16 01:38:40;;;;;;;20.00;11.07;;;;;;;20.62;100.00;95502.00;1045161;28;20489;-72
2021/08/16 01:39:11;;;;;;;17.05;10.07;;;;;;;20.63;100.00;95500.09;1045226;28;20105;-72
2021/08/16 01:39:41;;;;;;;18.57;9.97;;;;;;;20.62;100.00;95502.00;1045048;28;20098;-72
2021/08/16 01:40:13;;;;;;;19.50;10.90;;;;;;;20.62;100.00;95499.28;1045218;28;20028;-72
2021/08/16 01:40:43;;;;;;;22.98;11.27;;;;;;;20.61;100.00;95503.13;1045140;28;20021;-72
2021/08/16 01:41:13;;;;;;;18.20;10.50;;;;;;;20.61;100.00;95497.69;1045160;28;20025;-72
2021/08/16 01:41:47;;;;;;;22.07;10.77;;;;;;;20.61;100.00;95488.78;1045094;28;20020;-72
2021/08/16 01:42:18;;;;;;;19.88;10.73;;;;;;;20.61;100.00;95495.00;1045165;28;20033;-72
2021/08/16 01:42:48;;;;;;;23.70;10.70;;;;;;;20.62;100.00;95496.56;1045141;28;20485;-72
2021/08/16 01:43:18;;;;;;;20.77;10.40;;;;;;;20.63;100.00;95495.44;1045103;28;20040;-72
2021/08/16 01:43:49;;;;;;;17.50;10.37;;;;;;;20.63;100.00;95492.72;1045137;28;20024;-72
2021/08/16 01:44:20;;;;;;;27.80;11.40;;;;;;;20.63;100.00;95492.72;1045088;28;20025;-72
2021/08/16 01:44:50;;;;;;;15.95;10.63;;;;;;;20.63;100.00;95497.38;1045152;28;20021;-72
2021/08/16 01:45:21;;;;;;;23.27;11.70;;;;;;;20.64;100.00;95494.31;1045194;28;20025;-72
2021/08/16 01:45:54;;;;;;;16.10;11.13;;;;;;;20.64;100.00;95497.03;1045159;28;20028;-72
2021/08/16 01:46:25;;;;;;;18.73;10.77;;;;;;;20.64;100.00;95497.03;1045134;28;20070;-72
2021/08/16 01:46:55;;;;;;;24.47;11.40;;;;;;;20.64;100.00;95498.94;1045151;28;20154;-72
2021/08/16 01:47:26;;;;;;;18.47;10.23;;;;;;;20.66;100.00;95502.09;1045120;28;20270;-72
2021/08/16 01:47:57;;;;;;;21.93;10.73;;;;;;;20.65;100.00;95495.88;1045286;28;20021;-72
2021/08/16 01:48:27;;;;;;;20.70;11.57;;;;;;;20.67;100.00;95496.31;1045168;28;20112;-72
2021/08/16 01:48:58;;;;;;;17.67;10.07;;;;;;;20.69;100.00;95506.84;1045174;28;20024;-72
2021/08/16 01:49:28;;;;;;;19.90;10.70;;;;;;;20.68;100.00;95497.91;1045102;28;20066;-72
2021/08/16 01:49:58;;;;;;;17.27;10.73;;;;;;;20.67;100.00;95490.09;1045103;28;20061;-72
2021/08/16 01:50:29;;;;;;;21.83;11.37;;;;;;;20.68;100.00;95497.13;1045220;28;20069;-72
2021/08/16 01:50:59;;;;;;;19.67;10.67;;;;;;;20.69;100.00;95498.72;1045243;28;20142;-72
2021/08/16 01:51:30;;;;;;;19.07;11.23;;;;;;;20.69;100.00;95498.72;1047009;28;20133;-73
2021/08/16 01:52:00;;;;;;;21.93;11.67;;;;;;;20.70;100.00;95497.56;1047488;28;20024;-73
2021/08/16 01:52:31;;;;;;;21.77;11.53;;;;;;;20.70;100.00;95492.13;1047757;28;20028;-72
2021/08/16 01:53:01;;;;;;;16.53;11.37;;;;;;;20.71;100.00;95497.22;1047433;28;20048;-72
2021/08/16 01:53:32;;;;;;;23.70;12.20;;;;;;;20.71;100.00;95485.56;1047642;28;20032;-72
2021/08/16 01:54:04;;;;;;;18.73;10.87;;;;;;;20.71;100.00;95486.34;1047357;28;20492;-72
2021/08/16 01:54:36;;;;;;;19.83;10.75;;;;;;;20.71;100.00;95491.78;1046999;28;20025;-72
2021/08/16 01:55:08;;;;;;;21.13;11.07;;;;;;;20.72;100.00;95487.91;1047481;28;20021;-72
2021/08/16 01:55:38;;;;;;;17.45;10.82;;;;;;;20.72;100.00;95487.13;1047411;28;20017;-72
2021/08/16 01:56:09;;;;;;;25.17;12.13;;;;;;;20.74;100.00;95480.22;1047065;28;20606;-73
2021/08/16 01:56:39;;;;;;;25.30;11.97;;;;;;;20.76;100.00;95486.09;1047183;28;20021;-72
2021/08/16 01:57:12;;;;;;;20.40;11.77;;;;;;;20.77;100.00;95486.88;1043312;28;20021;-72
2021/08/16 01:57:42;;;;;;;27.52;11.75;;;;;;;20.75;100.00;95484.53;1043134;28;20029;-72
2021/08/16 01:58:12;;;;;;;21.50;12.27;;;;;;;20.75;100.00;95484.53;1042461;28;20065;-72
2021/08/16 01:58:43;;;;;;;20.07;11.20;;;;;;;20.76;100.00;95490.75;1043147;28;20344;-72
2021/08/16 01:59:13;;;;;;;22.93;11.80;;;;;;;20.76;100.00;95488.81;1047266;28;20470;-72
2021/08/16 01:59:44;;;;;;;17.70;11.83;;;;;;;20.76;100.00;95483.38;1047039;28;20036;-72
2021/08/16 02:00:14;;;;;;;24.30;11.20;;;;;;;20.76;100.00;95488.81;1047505;28;20024;-72
2021/08/16 02:00:44;;;;;;;21.67;12.00;;;;;;;20.77;100.00;95493.09;1047488;28;20028;-72
2021/08/16 02:01:15;;;;;;;19.23;12.27;;;;;;;20.77;100.00;95490.38;1047088;28;20438;-72
2021/08/16 02:01:45;;;;;;;19.97;11.67;;;;;;;20.77;100.00;95490.38;1047097;28;20036;-72
2021/08/16 02:02:16;;;;;;;21.07;12.03;;;;;;;20.77;100.00;95492.31;1047461;28;20021;-72
2021/08/16 02:02:46;;;;;;;22.73;11.53;;;;;;;20.78;100.00;95493.91;1047440;28;20021;-72
2021/08/16 02:03:17;;;;;;;27.33;13.07;;;;;;;20.79;100.00;95481.13;1045089;28;20532;-72
2021/08/16 02:03:47;;;;;;;21.97;12.50;;;;;;;20.79;100.00;95492.78;1045163;28;20024;-72
2021/08/16 02:04:17;;;;;;;24.67;12.83;;;;;;;20.80;100.00;95480.78;1045033;28;20044;-72
2021/08/16 02:04:48;;;;;;;25.70;13.13;;;;;;;20.81;100.00;95479.63;1045112;28;20386;-72
2021/08/16 02:05:19;;;;;;;18.87;11.87;;;;;;;20.80;100.00;95474.56;1044816;28;20454;-72
2021/08/16 02:05:49;;;;;;;22.77;13.03;;;;;;;20.80;100.00;95480.78;1044752;28;20047;-72
2021/08/16 02:06:22;;;;;;;20.87;11.77;;;;;;;20.79;100.00;95478.41;1044664;28;20025;-72
2021/08/16 02:06:53;;;;;;;19.55;12.30;;;;;;;20.80;100.00;95478.06;1044768;28;20620;-72
2021/08/16 02:07:23;;;;;;;25.20;12.17;;;;;;;20.81;100.00;95473.41;1044976;28;20124;-72
2021/08/16 02:07:54;;;;;;;24.73;12.67;;;;;;;20.81;100.00;95479.63;1045047;28;20047;-72
2021/08/16 02:08:24;;;;;;;26.40;11.70;;;;;;;20.80;100.00;95482.69;1044948;28;20025;-72
2021/08/16 02:08:55;;;;;;;21.80;12.00;;;;;;;20.81;100.00;95479.63;1045067;28;20036;-72
2021/08/16 02:09:26;;;;;;;21.88;12.45;;;;;;;20.84;100.00;95486.31;1045046;28;20025;-72
2021/08/16 02:09:56;;;;;;;25.37;12.97;;;;;;;20.83;100.00;95473.84;1045091;28;20079;-72
2021/08/16 02:10:27;;;;;;;22.70;12.70;;;;;;;20.84;100.00;95484.38;1044968;28;20029;-72
2021/08/16 02:10:57;;;;;;;22.70;12.07;;;;;;;20.85;100.00;95482.44;1044970;28;20032;-72
2021/08/16 02:11:28;;;;;;;21.40;12.50;;;;;;;20.86;100.00;95486.72;1044701;28;20381;-72
2021/08/16 02:11:58;;;;;;;18.23;12.33;;;;;;;20.85;100.00;95485.16;1044751;28;20497;-72
2021/08/16 02:12:28;;;;;;;26.33;13.20;;;;;;;20.83;100.00;95477.38;1048783;28;20500;-72
2021/08/16 02:12:59;;;;;;;22.03;11.93;;;;;;;20.82;100.00;95475.78;1044807;28;20036;-72
2021/08/16 02:13:29;;;;;;;21.50;12.73;;;;;;;20.81;100.00;95479.63;1048922;28;20025;-72
2021/08/16 02:14:00;;;;;;;20.33;11.73;;;;;;;20.84;100.00;95475.44;1040590;28;20401;-72
2021/08/16 02:14:30;;;;;;;27.07;13.60;;;;;;;20.83;100.00;95471.13;1036470;28;20451;-72
2021/08/16 02:15:00;;;;;;;24.57;12.53;;;;;;;20.80;100.00;95469.91;1040561;28;20022;-72
2021/08/16 02:15:31;;;;;;;21.93;12.73;;;;;;;20.82;100.00;95474.97;1040635;28;20021;-72
2021/08/16 02:16:02;;;;;;;25.83;12.70;;;;;;;20.79;100.00;95475.69;1045127;28;20021;-72
2021/08/16 02:16:33;;;;;;;27.42;13.68;;;;;;;20.79;100.00;95476.47;1044823;28;20149;-72
2021/08/16 02:17:03;;;;;;;19.33;12.40;;;;;;;20.78;100.00;95477.63;1044940;28;20043;-72
2021/08/16 02:17:34;;;;;;;23.57;12.27;;;;;;;20.79;100.00;95472.97;1045020;28;20430;-72
2021/08/16 02:18:04;;;;;;;26.73;12.47;;;;;;;20.79;100.00;95472.97;1045092;28;20025;-72
2021/08/16 02:18:35;;;;;;;21.53;12.43;;;;;;;20.79;100.00;95472.97;1045015;28;20472;-72
2021/08/16 02:19:05;;;;;;;18.40;12.40;;;;;;;20.80;100.00;95469.91;1044995;28;20028;-72
2021/08/16 02:19:36;;;;;;;22.10;12.73;;;;;;;20.78;100.00;95472.19;1044688;28;20017;-72
2021/08/16 02:20:07;;;;;;;29.00;13.73;;;;;;;20.74;100.00;95477.53;1044786;28;20470;-72